sensor_id;sensor_type;location;lat;lon;timestamp;P1;durP1;ratioP1;P2;durP2;ratioP2
20251;SDS011;10284;58.364;15.550;2023-08-20T00:02:12;7.93;;;5.15;;
20251;SDS011;10284;58.364;15.550;2023-08-20T00:04:38;6.90;;;4.80;;
20251;SDS011;10284;58.364;15.550;2023-08-20T00:07:05;6.72;;;4.43;;
20251;SDS011;10284;58.364;15.550;2023-08-20T00:09:31;5.93;;;4.20;;
20251;SDS011;10284;58.364;15.550;2023-08-20T00:11:58;4.93;;;4.38;;
20251;SDS011;10284;58.364;15.550;2023-08-20T00:14:51;4.57;;;4.05;;
20251;SDS011;10284;58.364;15.550;2023-08-20T00:17:30;4.95;;;3.92;;
20251;SDS011;10284;58.364;15.550;2023-08-20T00:19:56;4.45;;;3.85;;
20251;SDS011;10284;58.364;15.550;2023-08-20T00:22:23;3.97;;;3.50;;
20251;SDS011;10284;58.364;15.550;2023-08-20T00:24:49;3.83;;;3.42;;
20251;SDS011;10284;58.364;15.550;2023-08-20T00:27:18;7.30;;;3.80;;
20251;SDS011;10284;58.364;15.550;2023-08-20T00:29:44;4.22;;;3.55;;
20251;SDS011;10284;58.364;15.550;2023-08-20T00:32:09;5.85;;;4.30;;
20251;SDS011;10284;58.364;15.550;2023-08-20T00:34:34;5.05;;;4.25;;
20251;SDS011;10284;58.364;15.550;2023-08-20T00:37:00;5.70;;;4.20;;
20251;SDS011;10284;58.364;15.550;2023-08-20T00:39:26;8.35;;;4.63;;
20251;SDS011;10284;58.364;15.550;2023-08-20T00:41:52;6.20;;;4.25;;
20251;SDS011;10284;58.364;15.550;2023-08-20T00:44:18;7.43;;;4.35;;
20251;SDS011;10284;58.364;15.550;2023-08-20T00:46:43;6.50;;;4.63;;
20251;SDS011;10284;58.364;15.550;2023-08-20T00:49:09;4.97;;;4.28;;
20251;SDS011;10284;58.364;15.550;2023-08-20T00:51:34;4.47;;;3.65;;
20251;SDS011;10284;58.364;15.550;2023-08-20T00:54:01;6.65;;;4.53;;
20251;SDS011;10284;58.364;15.550;2023-08-20T00:56:27;5.35;;;4.20;;
20251;SDS011;10284;58.364;15.550;2023-08-20T00:58:53;5.55;;;4.43;;
20251;SDS011;10284;58.364;15.550;2023-08-20T01:01:20;5.13;;;3.85;;
20251;SDS011;10284;58.364;15.550;2023-08-20T01:03:46;5.25;;;3.90;;
20251;SDS011;10284;58.364;15.550;2023-08-20T01:09:03;4.90;;;3.63;;
20251;SDS011;10284;58.364;15.550;2023-08-20T01:11:33;4.60;;;3.70;;
20251;SDS011;10284;58.364;15.550;2023-08-20T01:14:02;4.53;;;3.80;;
20251;SDS011;10284;58.364;15.550;2023-08-20T01:16:28;5.75;;;4.20;;
20251;SDS011;10284;58.364;15.550;2023-08-20T01:18:53;5.07;;;4.05;;
20251;SDS011;10284;58.364;15.550;2023-08-20T01:21:24;6.50;;;4.28;;
20251;SDS011;10284;58.364;15.550;2023-08-20T01:28:54;6.28;;;4.55;;
20251;SDS011;10284;58.364;15.550;2023-08-20T01:31:20;7.22;;;4.88;;
20251;SDS011;10284;58.364;15.550;2023-08-20T01:33:46;5.97;;;4.50;;
20251;SDS011;10284;58.364;15.550;2023-08-20T01:36:11;6.47;;;4.70;;
20251;SDS011;10284;58.364;15.550;2023-08-20T01:38:37;5.50;;;4.55;;
20251;SDS011;10284;58.364;15.550;2023-08-20T01:41:03;6.05;;;4.72;;
20251;SDS011;10284;58.364;15.550;2023-08-20T01:43:29;7.18;;;4.55;;
20251;SDS011;10284;58.364;15.550;2023-08-20T01:45:54;4.72;;;4.15;;
20251;SDS011;10284;58.364;15.550;2023-08-20T01:48:20;6.40;;;4.80;;
20251;SDS011;10284;58.364;15.550;2023-08-20T01:50:45;6.95;;;4.80;;
20251;SDS011;10284;58.364;15.550;2023-08-20T01:53:11;7.22;;;4.80;;
20251;SDS011;10284;58.364;15.550;2023-08-20T01:55:36;6.72;;;5.20;;
20251;SDS011;10284;58.364;15.550;2023-08-20T01:58:02;6.82;;;5.32;;
20251;SDS011;10284;58.364;15.550;2023-08-20T02:00:28;7.10;;;5.47;;
20251;SDS011;10284;58.364;15.550;2023-08-20T02:02:53;7.35;;;5.22;;
20251;SDS011;10284;58.364;15.550;2023-08-20T02:05:19;9.20;;;5.60;;
20251;SDS011;10284;58.364;15.550;2023-08-20T02:07:44;9.90;;;5.97;;
20251;SDS011;10284;58.364;15.550;2023-08-20T02:10:10;8.02;;;5.65;;
20251;SDS011;10284;58.364;15.550;2023-08-20T02:12:35;7.45;;;5.82;;
20251;SDS011;10284;58.364;15.550;2023-08-20T02:15:01;8.85;;;5.55;;
20251;SDS011;10284;58.364;15.550;2023-08-20T02:17:28;6.95;;;5.72;;
20251;SDS011;10284;58.364;15.550;2023-08-20T02:19:54;9.38;;;5.95;;
20251;SDS011;10284;58.364;15.550;2023-08-20T02:22:19;8.98;;;6.00;;
20251;SDS011;10284;58.364;15.550;2023-08-20T02:24:46;8.60;;;5.43;;
20251;SDS011;10284;58.364;15.550;2023-08-20T02:27:11;7.60;;;5.45;;
20251;SDS011;10284;58.364;15.550;2023-08-20T02:29:36;7.57;;;5.80;;
20251;SDS011;10284;58.364;15.550;2023-08-20T02:32:02;11.75;;;5.60;;
20251;SDS011;10284;58.364;15.550;2023-08-20T02:34:28;5.00;;;3.75;;
20251;SDS011;10284;58.364;15.550;2023-08-20T02:36:53;6.75;;;4.20;;
20251;SDS011;10284;58.364;15.550;2023-08-20T02:39:19;4.93;;;3.50;;
20251;SDS011;10284;58.364;15.550;2023-08-20T02:41:45;5.63;;;4.00;;
20251;SDS011;10284;58.364;15.550;2023-08-20T02:44:10;4.68;;;3.70;;
20251;SDS011;10284;58.364;15.550;2023-08-20T02:46:36;3.58;;;3.20;;
20251;SDS011;10284;58.364;15.550;2023-08-20T02:49:03;4.47;;;3.65;;
20251;SDS011;10284;58.364;15.550;2023-08-20T02:51:28;4.80;;;3.58;;
20251;SDS011;10284;58.364;15.550;2023-08-20T02:53:54;5.75;;;3.28;;
20251;SDS011;10284;58.364;15.550;2023-08-20T02:56:19;4.35;;;3.30;;
20251;SDS011;10284;58.364;15.550;2023-08-20T02:58:45;5.15;;;3.92;;
20251;SDS011;10284;58.364;15.550;2023-08-20T03:01:17;3.78;;;2.83;;
20251;SDS011;10284;58.364;15.550;2023-08-20T03:03:44;5.57;;;3.22;;
20251;SDS011;10284;58.364;15.550;2023-08-20T03:06:09;5.40;;;3.30;;
20251;SDS011;10284;58.364;15.550;2023-08-20T03:08:35;3.97;;;3.45;;
20251;SDS011;10284;58.364;15.550;2023-08-20T03:11:00;4.50;;;3.28;;
20251;SDS011;10284;58.364;15.550;2023-08-20T03:13:25;3.33;;;2.95;;
20251;SDS011;10284;58.364;15.550;2023-08-20T03:15:51;7.28;;;3.17;;
20251;SDS011;10284;58.364;15.550;2023-08-20T03:18:16;4.97;;;3.70;;
20251;SDS011;10284;58.364;15.550;2023-08-20T03:20:42;4.95;;;3.35;;
20251;SDS011;10284;58.364;15.550;2023-08-20T03:23:07;5.00;;;3.60;;
20251;SDS011;10284;58.364;15.550;2023-08-20T03:25:33;4.28;;;3.25;;
20251;SDS011;10284;58.364;15.550;2023-08-20T03:27:59;5.55;;;3.92;;
20251;SDS011;10284;58.364;15.550;2023-08-20T03:30:24;4.95;;;3.58;;
20251;SDS011;10284;58.364;15.550;2023-08-20T03:32:50;4.45;;;3.40;;
20251;SDS011;10284;58.364;15.550;2023-08-20T03:35:15;3.75;;;3.10;;
20251;SDS011;10284;58.364;15.550;2023-08-20T03:37:41;4.28;;;3.50;;
20251;SDS011;10284;58.364;15.550;2023-08-20T03:40:06;4.35;;;3.15;;
20251;SDS011;10284;58.364;15.550;2023-08-20T03:42:32;5.18;;;3.42;;
20251;SDS011;10284;58.364;15.550;2023-08-20T03:44:58;3.78;;;3.33;;
20251;SDS011;10284;58.364;15.550;2023-08-20T03:47:23;4.97;;;3.90;;
20251;SDS011;10284;58.364;15.550;2023-08-20T03:49:49;5.90;;;3.33;;
20251;SDS011;10284;58.364;15.550;2023-08-20T03:52:14;5.13;;;3.60;;
20251;SDS011;10284;58.364;15.550;2023-08-20T03:54:40;4.97;;;3.75;;
20251;SDS011;10284;58.364;15.550;2023-08-20T03:57:05;5.82;;;3.15;;
20251;SDS011;10284;58.364;15.550;2023-08-20T03:59:30;5.55;;;3.45;;
20251;SDS011;10284;58.364;15.550;2023-08-20T04:01:56;7.05;;;3.53;;
20251;SDS011;10284;58.364;15.550;2023-08-20T04:04:22;4.30;;;3.33;;
20251;SDS011;10284;58.364;15.550;2023-08-20T04:06:48;5.10;;;3.70;;
20251;SDS011;10284;58.364;15.550;2023-08-20T04:09:13;5.60;;;3.88;;
20251;SDS011;10284;58.364;15.550;2023-08-20T04:11:39;6.20;;;3.45;;
20251;SDS011;10284;58.364;15.550;2023-08-20T04:14:04;4.55;;;3.65;;
20251;SDS011;10284;58.364;15.550;2023-08-20T04:16:30;7.60;;;3.92;;
20251;SDS011;10284;58.364;15.550;2023-08-20T04:18:55;3.75;;;3.28;;
20251;SDS011;10284;58.364;15.550;2023-08-20T04:21:21;4.00;;;3.53;;
20251;SDS011;10284;58.364;15.550;2023-08-20T04:23:47;3.50;;;3.10;;
20251;SDS011;10284;58.364;15.550;2023-08-20T04:26:12;5.80;;;3.50;;
20251;SDS011;10284;58.364;15.550;2023-08-20T04:28:38;4.30;;;2.83;;
20251;SDS011;10284;58.364;15.550;2023-08-20T04:31:03;4.68;;;3.58;;
20251;SDS011;10284;58.364;15.550;2023-08-20T04:33:29;5.20;;;3.33;;
20251;SDS011;10284;58.364;15.550;2023-08-20T04:35:54;4.95;;;3.10;;
20251;SDS011;10284;58.364;15.550;2023-08-20T04:38:19;3.28;;;2.90;;
20251;SDS011;10284;58.364;15.550;2023-08-20T04:40:48;4.05;;;3.00;;
20251;SDS011;10284;58.364;15.550;2023-08-20T04:43:14;6.38;;;3.10;;
20251;SDS011;10284;58.364;15.550;2023-08-20T04:45:40;2.88;;;2.42;;
20251;SDS011;10284;58.364;15.550;2023-08-20T04:48:06;2.90;;;2.58;;
20251;SDS011;10284;58.364;15.550;2023-08-20T04:50:31;4.35;;;3.20;;
20251;SDS011;10284;58.364;15.550;2023-08-20T04:52:57;5.80;;;3.20;;
20251;SDS011;10284;58.364;15.550;2023-08-20T04:55:24;3.17;;;2.85;;
20251;SDS011;10284;58.364;15.550;2023-08-20T04:57:50;3.17;;;2.72;;
20251;SDS011;10284;58.364;15.550;2023-08-20T05:00:16;3.63;;;3.00;;
20251;SDS011;10284;58.364;15.550;2023-08-20T05:02:41;4.07;;;2.78;;
20251;SDS011;10284;58.364;15.550;2023-08-20T05:05:07;3.42;;;2.78;;
20251;SDS011;10284;58.364;15.550;2023-08-20T05:07:32;5.82;;;3.05;;
20251;SDS011;10284;58.364;15.550;2023-08-20T05:09:58;4.85;;;3.10;;
20251;SDS011;10284;58.364;15.550;2023-08-20T05:12:23;3.85;;;3.08;;
20251;SDS011;10284;58.364;15.550;2023-08-20T05:14:49;5.10;;;3.90;;
20251;SDS011;10284;58.364;15.550;2023-08-20T05:17:14;5.78;;;3.70;;
20251;SDS011;10284;58.364;15.550;2023-08-20T05:19:39;6.28;;;4.40;;
20251;SDS011;10284;58.364;15.550;2023-08-20T05:22:05;7.40;;;5.35;;
20251;SDS011;10284;58.364;15.550;2023-08-20T05:24:30;8.32;;;6.15;;
20251;SDS011;10284;58.364;15.550;2023-08-20T05:27:08;7.97;;;5.80;;
20251;SDS011;10284;58.364;15.550;2023-08-20T05:29:39;6.25;;;5.20;;
20251;SDS011;10284;58.364;15.550;2023-08-20T05:32:05;8.32;;;5.45;;
20251;SDS011;10284;58.364;15.550;2023-08-20T05:34:31;5.80;;;4.63;;
20251;SDS011;10284;58.364;15.550;2023-08-20T05:36:56;8.23;;;5.15;;
20251;SDS011;10284;58.364;15.550;2023-08-20T05:39:22;6.10;;;4.15;;
20251;SDS011;10284;58.364;15.550;2023-08-20T05:41:48;7.85;;;4.95;;
20251;SDS011;10284;58.364;15.550;2023-08-20T05:44:14;6.10;;;4.88;;
20251;SDS011;10284;58.364;15.550;2023-08-20T05:46:39;6.95;;;4.78;;
20251;SDS011;10284;58.364;15.550;2023-08-20T05:49:06;7.13;;;4.80;;
20251;SDS011;10284;58.364;15.550;2023-08-20T05:51:31;6.07;;;4.50;;
20251;SDS011;10284;58.364;15.550;2023-08-20T05:53:57;6.25;;;4.97;;
20251;SDS011;10284;58.364;15.550;2023-08-20T05:56:22;6.05;;;4.53;;
20251;SDS011;10284;58.364;15.550;2023-08-20T05:58:47;4.43;;;4.03;;
20251;SDS011;10284;58.364;15.550;2023-08-20T06:01:13;5.13;;;4.18;;
20251;SDS011;10284;58.364;15.550;2023-08-20T06:03:38;6.43;;;4.35;;
20251;SDS011;10284;58.364;15.550;2023-08-20T06:06:04;5.20;;;3.47;;
20251;SDS011;10284;58.364;15.550;2023-08-20T06:08:29;5.95;;;3.65;;
20251;SDS011;10284;58.364;15.550;2023-08-20T06:10:54;4.72;;;3.60;;
20251;SDS011;10284;58.364;15.550;2023-08-20T06:13:20;4.90;;;4.03;;
20251;SDS011;10284;58.364;15.550;2023-08-20T06:15:45;5.70;;;4.70;;
20251;SDS011;10284;58.364;15.550;2023-08-20T06:18:11;5.15;;;4.50;;
20251;SDS011;10284;58.364;15.550;2023-08-20T06:20:36;7.20;;;4.60;;
20251;SDS011;10284;58.364;15.550;2023-08-20T06:23:02;5.13;;;4.47;;
20251;SDS011;10284;58.364;15.550;2023-08-20T06:25:27;5.75;;;3.75;;
20251;SDS011;10284;58.364;15.550;2023-08-20T06:27:53;3.90;;;3.35;;
20251;SDS011;10284;58.364;15.550;2023-08-20T06:30:18;6.47;;;3.30;;
20251;SDS011;10284;58.364;15.550;2023-08-20T06:32:44;4.72;;;3.58;;
20251;SDS011;10284;58.364;15.550;2023-08-20T06:35:09;4.05;;;3.20;;
20251;SDS011;10284;58.364;15.550;2023-08-20T06:37:35;4.25;;;2.90;;
20251;SDS011;10284;58.364;15.550;2023-08-20T06:40:01;4.25;;;3.03;;
20251;SDS011;10284;58.364;15.550;2023-08-20T06:42:26;4.18;;;3.00;;
20251;SDS011;10284;58.364;15.550;2023-08-20T06:44:52;4.85;;;2.92;;
20251;SDS011;10284;58.364;15.550;2023-08-20T06:47:17;3.58;;;3.08;;
20251;SDS011;10284;58.364;15.550;2023-08-20T06:49:43;3.38;;;3.08;;
20251;SDS011;10284;58.364;15.550;2023-08-20T06:52:08;6.45;;;3.83;;
20251;SDS011;10284;58.364;15.550;2023-08-20T06:54:34;6.50;;;3.97;;
20251;SDS011;10284;58.364;15.550;2023-08-20T06:56:59;8.00;;;3.90;;
20251;SDS011;10284;58.364;15.550;2023-08-20T06:59:26;3.75;;;3.35;;
20251;SDS011;10284;58.364;15.550;2023-08-20T07:01:52;4.63;;;4.03;;
20251;SDS011;10284;58.364;15.550;2023-08-20T07:04:17;4.07;;;3.33;;
20251;SDS011;10284;58.364;15.550;2023-08-20T07:06:43;3.88;;;3.17;;
20251;SDS011;10284;58.364;15.550;2023-08-20T07:09:08;3.90;;;3.13;;
20251;SDS011;10284;58.364;15.550;2023-08-20T07:11:34;4.03;;;3.22;;
20251;SDS011;10284;58.364;15.550;2023-08-20T07:14:00;3.92;;;3.10;;
20251;SDS011;10284;58.364;15.550;2023-08-20T07:16:25;4.63;;;3.58;;
20251;SDS011;10284;58.364;15.550;2023-08-20T07:18:50;3.60;;;3.30;;
20251;SDS011;10284;58.364;15.550;2023-08-20T07:21:18;5.55;;;3.35;;
20251;SDS011;10284;58.364;15.550;2023-08-20T07:23:43;4.57;;;3.53;;
20251;SDS011;10284;58.364;15.550;2023-08-20T07:26:09;7.57;;;4.15;;
20251;SDS011;10284;58.364;15.550;2023-08-20T07:28:37;4.45;;;3.53;;
20251;SDS011;10284;58.364;15.550;2023-08-20T07:31:21;4.05;;;3.38;;
20251;SDS011;10284;58.364;15.550;2023-08-20T07:33:50;5.85;;;4.22;;
20251;SDS011;10284;58.364;15.550;2023-08-20T07:36:16;8.60;;;4.70;;
20251;SDS011;10284;58.364;15.550;2023-08-20T07:38:42;7.18;;;4.75;;
20251;SDS011;10284;58.364;15.550;2023-08-20T07:41:11;7.00;;;4.75;;
20251;SDS011;10284;58.364;15.550;2023-08-20T07:43:37;6.20;;;4.40;;
20251;SDS011;10284;58.364;15.550;2023-08-20T07:46:04;10.23;;;4.78;;
20251;SDS011;10284;58.364;15.550;2023-08-20T07:48:30;6.78;;;4.40;;
20251;SDS011;10284;58.364;15.550;2023-08-20T07:50:55;9.35;;;5.78;;
20251;SDS011;10284;58.364;15.550;2023-08-20T07:53:20;5.38;;;4.70;;
20251;SDS011;10284;58.364;15.550;2023-08-20T07:55:46;8.27;;;4.75;;
20251;SDS011;10284;58.364;15.550;2023-08-20T07:58:11;5.30;;;4.55;;
20251;SDS011;10284;58.364;15.550;2023-08-20T08:00:37;7.80;;;4.78;;
20251;SDS011;10284;58.364;15.550;2023-08-20T08:03:02;9.98;;;5.45;;
20251;SDS011;10284;58.364;15.550;2023-08-20T08:05:28;5.47;;;4.60;;
20251;SDS011;10284;58.364;15.550;2023-08-20T08:07:53;8.13;;;5.35;;
20251;SDS011;10284;58.364;15.550;2023-08-20T08:10:19;6.30;;;5.00;;
20251;SDS011;10284;58.364;15.550;2023-08-20T08:12:45;7.28;;;4.63;;
20251;SDS011;10284;58.364;15.550;2023-08-20T08:15:11;6.15;;;5.15;;
20251;SDS011;10284;58.364;15.550;2023-08-20T08:17:37;9.35;;;4.97;;
20251;SDS011;10284;58.364;15.550;2023-08-20T08:20:02;9.48;;;5.85;;
20251;SDS011;10284;58.364;15.550;2023-08-20T08:22:28;6.90;;;5.13;;
20251;SDS011;10284;58.364;15.550;2023-08-20T08:24:53;7.75;;;5.10;;
20251;SDS011;10284;58.364;15.550;2023-08-20T08:27:19;7.45;;;5.40;;
20251;SDS011;10284;58.364;15.550;2023-08-20T08:29:44;5.97;;;4.85;;
20251;SDS011;10284;58.364;15.550;2023-08-20T08:32:10;6.22;;;5.55;;
20251;SDS011;10284;58.364;15.550;2023-08-20T08:34:35;6.85;;;5.47;;
20251;SDS011;10284;58.364;15.550;2023-08-20T08:37:01;10.75;;;5.38;;
20251;SDS011;10284;58.364;15.550;2023-08-20T08:39:26;8.90;;;5.40;;
20251;SDS011;10284;58.364;15.550;2023-08-20T08:41:53;9.00;;;5.70;;
20251;SDS011;10284;58.364;15.550;2023-08-20T08:44:32;10.35;;;4.78;;
20251;SDS011;10284;58.364;15.550;2023-08-20T08:46:58;8.73;;;5.35;;
20251;SDS011;10284;58.364;15.550;2023-08-20T08:49:24;6.60;;;4.72;;
20251;SDS011;10284;58.364;15.550;2023-08-20T08:51:51;8.73;;;4.57;;
20251;SDS011;10284;58.364;15.550;2023-08-20T08:54:18;6.47;;;4.50;;
20251;SDS011;10284;58.364;15.550;2023-08-20T08:56:45;5.85;;;4.55;;
20251;SDS011;10284;58.364;15.550;2023-08-20T08:59:10;6.43;;;4.60;;
20251;SDS011;10284;58.364;15.550;2023-08-20T09:01:37;6.95;;;4.65;;
20251;SDS011;10284;58.364;15.550;2023-08-20T09:04:04;5.75;;;4.00;;
20251;SDS011;10284;58.364;15.550;2023-08-20T09:06:43;6.22;;;4.25;;
20251;SDS011;10284;58.364;15.550;2023-08-20T09:09:20;4.32;;;3.58;;
20251;SDS011;10284;58.364;15.550;2023-08-20T09:11:46;5.15;;;3.53;;
20251;SDS011;10284;58.364;15.550;2023-08-20T09:14:21;6.10;;;3.80;;
20251;SDS011;10284;58.364;15.550;2023-08-20T09:16:53;5.40;;;4.03;;
20251;SDS011;10284;58.364;15.550;2023-08-20T09:19:19;4.93;;;3.78;;
20251;SDS011;10284;58.364;15.550;2023-08-20T09:21:48;5.25;;;3.10;;
20251;SDS011;10284;58.364;15.550;2023-08-20T09:24:14;3.53;;;3.10;;
20251;SDS011;10284;58.364;15.550;2023-08-20T09:26:44;6.65;;;3.33;;
20251;SDS011;10284;58.364;15.550;2023-08-20T09:29:10;7.05;;;3.47;;
20251;SDS011;10284;58.364;15.550;2023-08-20T09:31:36;4.10;;;3.30;;
20251;SDS011;10284;58.364;15.550;2023-08-20T09:34:03;4.47;;;2.95;;
20251;SDS011;10284;58.364;15.550;2023-08-20T09:36:33;4.00;;;3.35;;
20251;SDS011;10284;58.364;15.550;2023-08-20T09:39:00;3.83;;;3.30;;
20251;SDS011;10284;58.364;15.550;2023-08-20T09:41:26;4.80;;;3.15;;
20251;SDS011;10284;58.364;15.550;2023-08-20T09:44:00;5.03;;;3.22;;
20251;SDS011;10284;58.364;15.550;2023-08-20T09:46:27;3.45;;;2.92;;
20251;SDS011;10284;58.364;15.550;2023-08-20T09:48:56;4.45;;;3.50;;
20251;SDS011;10284;58.364;15.550;2023-08-20T09:51:26;3.83;;;3.20;;
20251;SDS011;10284;58.364;15.550;2023-08-20T09:56:22;5.25;;;3.10;;
20251;SDS011;10284;58.364;15.550;2023-08-20T09:58:53;7.10;;;3.58;;
20251;SDS011;10284;58.364;15.550;2023-08-20T10:01:19;6.97;;;3.08;;
20251;SDS011;10284;58.364;15.550;2023-08-20T10:03:44;6.10;;;3.72;;
20251;SDS011;10284;58.364;15.550;2023-08-20T10:06:10;5.72;;;2.70;;
20251;SDS011;10284;58.364;15.550;2023-08-20T10:08:36;4.50;;;3.15;;
20251;SDS011;10284;58.364;15.550;2023-08-20T10:11:02;5.15;;;3.17;;
20251;SDS011;10284;58.364;15.550;2023-08-20T10:13:27;5.30;;;3.20;;
20251;SDS011;10284;58.364;15.550;2023-08-20T10:15:53;3.60;;;2.85;;
20251;SDS011;10284;58.364;15.550;2023-08-20T10:18:20;4.00;;;2.90;;
20251;SDS011;10284;58.364;15.550;2023-08-20T10:20:48;4.30;;;3.33;;
20251;SDS011;10284;58.364;15.550;2023-08-20T10:23:15;6.60;;;3.40;;
20251;SDS011;10284;58.364;15.550;2023-08-20T10:25:45;6.60;;;2.92;;
20251;SDS011;10284;58.364;15.550;2023-08-20T10:31:03;4.18;;;2.80;;
20251;SDS011;10284;58.364;15.550;2023-08-20T10:33:33;3.17;;;2.60;;
20251;SDS011;10284;58.364;15.550;2023-08-20T10:36:10;4.82;;;2.50;;
20251;SDS011;10284;58.364;15.550;2023-08-20T10:38:38;3.25;;;2.60;;
20251;SDS011;10284;58.364;15.550;2023-08-20T10:41:08;2.72;;;2.33;;
20251;SDS011;10284;58.364;15.550;2023-08-20T10:48:49;2.70;;;2.00;;
20251;SDS011;10284;58.364;15.550;2023-08-20T10:51:19;2.45;;;2.25;;
20251;SDS011;10284;58.364;15.550;2023-08-20T10:59:34;2.22;;;2.03;;
20251;SDS011;10284;58.364;15.550;2023-08-20T11:02:04;2.75;;;2.10;;
20251;SDS011;10284;58.364;15.550;2023-08-20T11:04:33;3.13;;;2.20;;
20251;SDS011;10284;58.364;15.550;2023-08-20T11:06:58;3.97;;;1.85;;
20251;SDS011;10284;58.364;15.550;2023-08-20T11:09:28;3.45;;;1.88;;
20251;SDS011;10284;58.364;15.550;2023-08-20T11:11:54;4.45;;;2.17;;
20251;SDS011;10284;58.364;15.550;2023-08-20T11:14:20;1.90;;;1.80;;
20251;SDS011;10284;58.364;15.550;2023-08-20T11:16:46;4.50;;;2.08;;
20251;SDS011;10284;58.364;15.550;2023-08-20T11:19:13;4.72;;;1.90;;
20251;SDS011;10284;58.364;15.550;2023-08-20T11:21:42;3.72;;;2.30;;
20251;SDS011;10284;58.364;15.550;2023-08-20T11:24:08;2.40;;;2.20;;
20251;SDS011;10284;58.364;15.550;2023-08-20T11:26:34;3.60;;;2.30;;
20251;SDS011;10284;58.364;15.550;2023-08-20T11:29:00;2.35;;;2.15;;
20251;SDS011;10284;58.364;15.550;2023-08-20T11:31:27;2.83;;;2.15;;
20251;SDS011;10284;58.364;15.550;2023-08-20T11:33:52;3.53;;;2.15;;
20251;SDS011;10284;58.364;15.550;2023-08-20T11:36:19;5.93;;;2.40;;
20251;SDS011;10284;58.364;15.550;2023-08-20T11:38:51;5.10;;;2.75;;
20251;SDS011;10284;58.364;15.550;2023-08-20T11:41:18;2.67;;;2.40;;
20251;SDS011;10284;58.364;15.550;2023-08-20T11:43:43;3.33;;;2.38;;
20251;SDS011;10284;58.364;15.550;2023-08-20T11:46:12;3.10;;;2.40;;
20251;SDS011;10284;58.364;15.550;2023-08-20T11:48:57;7.28;;;2.42;;
20251;SDS011;10284;58.364;15.550;2023-08-20T11:51:23;2.67;;;2.47;;
20251;SDS011;10284;58.364;15.550;2023-08-20T11:53:49;3.15;;;2.17;;
20251;SDS011;10284;58.364;15.550;2023-08-20T11:56:14;3.20;;;2.45;;
20251;SDS011;10284;58.364;15.550;2023-08-20T11:58:40;2.92;;;2.30;;
20251;SDS011;10284;58.364;15.550;2023-08-20T12:01:07;6.07;;;2.70;;
20251;SDS011;10284;58.364;15.550;2023-08-20T12:03:33;2.80;;;2.47;;
20251;SDS011;10284;58.364;15.550;2023-08-20T12:05:58;2.13;;;1.92;;
20251;SDS011;10284;58.364;15.550;2023-08-20T12:08:24;3.53;;;2.35;;
20251;SDS011;10284;58.364;15.550;2023-08-20T12:10:49;2.65;;;2.15;;
20251;SDS011;10284;58.364;15.550;2023-08-20T12:13:14;2.63;;;2.42;;
20251;SDS011;10284;58.364;15.550;2023-08-20T12:15:40;4.53;;;2.65;;
20251;SDS011;10284;58.364;15.550;2023-08-20T12:18:05;2.45;;;2.15;;
20251;SDS011;10284;58.364;15.550;2023-08-20T12:20:32;3.15;;;2.47;;
20251;SDS011;10284;58.364;15.550;2023-08-20T12:22:59;5.70;;;2.47;;
20251;SDS011;10284;58.364;15.550;2023-08-20T12:25:26;3.13;;;2.15;;
20251;SDS011;10284;58.364;15.550;2023-08-20T12:27:54;2.42;;;2.22;;
20251;SDS011;10284;58.364;15.550;2023-08-20T12:30:19;3.97;;;2.63;;
20251;SDS011;10284;58.364;15.550;2023-08-20T12:32:45;3.65;;;2.67;;
20251;SDS011;10284;58.364;15.550;2023-08-20T12:35:11;2.95;;;2.50;;
20251;SDS011;10284;58.364;15.550;2023-08-20T12:37:36;2.58;;;2.38;;
20251;SDS011;10284;58.364;15.550;2023-08-20T12:40:02;2.63;;;2.42;;
20251;SDS011;10284;58.364;15.550;2023-08-20T12:42:28;3.05;;;2.63;;
20251;SDS011;10284;58.364;15.550;2023-08-20T12:44:54;3.47;;;2.65;;
20251;SDS011;10284;58.364;15.550;2023-08-20T12:47:20;3.92;;;2.95;;
20251;SDS011;10284;58.364;15.550;2023-08-20T12:49:45;4.03;;;2.90;;
20251;SDS011;10284;58.364;15.550;2023-08-20T12:52:10;5.85;;;2.83;;
20251;SDS011;10284;58.364;15.550;2023-08-20T12:54:36;3.53;;;2.38;;
20251;SDS011;10284;58.364;15.550;2023-08-20T12:57:02;7.15;;;2.70;;
20251;SDS011;10284;58.364;15.550;2023-08-20T12:59:27;4.45;;;3.20;;
20251;SDS011;10284;58.364;15.550;2023-08-20T13:01:55;3.75;;;2.90;;
20251;SDS011;10284;58.364;15.550;2023-08-20T13:04:20;2.88;;;2.60;;
20251;SDS011;10284;58.364;15.550;2023-08-20T13:06:46;3.80;;;2.80;;
20251;SDS011;10284;58.364;15.550;2023-08-20T13:09:12;5.38;;;3.30;;
20251;SDS011;10284;58.364;15.550;2023-08-20T13:11:40;3.40;;;3.00;;
20251;SDS011;10284;58.364;15.550;2023-08-20T13:14:07;3.58;;;2.95;;
20251;SDS011;10284;58.364;15.550;2023-08-20T13:16:33;4.70;;;3.10;;
20251;SDS011;10284;58.364;15.550;2023-08-20T13:18:59;4.18;;;2.65;;
20251;SDS011;10284;58.364;15.550;2023-08-20T13:21:24;4.30;;;2.70;;
20251;SDS011;10284;58.364;15.550;2023-08-20T13:23:50;3.55;;;2.72;;
20251;SDS011;10284;58.364;15.550;2023-08-20T13:26:15;4.78;;;3.38;;
20251;SDS011;10284;58.364;15.550;2023-08-20T13:28:41;4.70;;;3.00;;
20251;SDS011;10284;58.364;15.550;2023-08-20T13:31:06;3.42;;;2.95;;
20251;SDS011;10284;58.364;15.550;2023-08-20T13:33:31;5.65;;;3.08;;
20251;SDS011;10284;58.364;15.550;2023-08-20T13:35:57;4.75;;;3.08;;
20251;SDS011;10284;58.364;15.550;2023-08-20T13:38:22;3.38;;;3.08;;
20251;SDS011;10284;58.364;15.550;2023-08-20T13:40:48;4.35;;;3.47;;
20251;SDS011;10284;58.364;15.550;2023-08-20T13:43:14;3.10;;;2.80;;
20251;SDS011;10284;58.364;15.550;2023-08-20T13:45:39;6.05;;;3.45;;
20251;SDS011;10284;58.364;15.550;2023-08-20T13:48:05;3.83;;;2.88;;
20251;SDS011;10284;58.364;15.550;2023-08-20T13:50:30;3.95;;;3.00;;
20251;SDS011;10284;58.364;15.550;2023-08-20T13:52:56;3.70;;;3.08;;
20251;SDS011;10284;58.364;15.550;2023-08-20T13:55:21;5.97;;;3.40;;
20251;SDS011;10284;58.364;15.550;2023-08-20T13:57:47;5.28;;;3.33;;
20251;SDS011;10284;58.364;15.550;2023-08-20T14:00:12;4.22;;;3.45;;
20251;SDS011;10284;58.364;15.550;2023-08-20T14:02:38;3.75;;;3.38;;
20251;SDS011;10284;58.364;15.550;2023-08-20T14:05:04;5.03;;;3.90;;
20251;SDS011;10284;58.364;15.550;2023-08-20T14:07:30;4.15;;;3.28;;
20251;SDS011;10284;58.364;15.550;2023-08-20T14:09:57;5.30;;;3.47;;
20251;SDS011;10284;58.364;15.550;2023-08-20T14:12:23;3.80;;;3.38;;
20251;SDS011;10284;58.364;15.550;2023-08-20T14:14:48;4.93;;;3.25;;
20251;SDS011;10284;58.364;15.550;2023-08-20T14:17:14;4.35;;;3.45;;
20251;SDS011;10284;58.364;15.550;2023-08-20T14:19:39;4.45;;;3.30;;
20251;SDS011;10284;58.364;15.550;2023-08-20T14:22:05;7.15;;;3.97;;
20251;SDS011;10284;58.364;15.550;2023-08-20T14:24:30;6.13;;;3.85;;
20251;SDS011;10284;58.364;15.550;2023-08-20T14:26:56;5.70;;;3.33;;
20251;SDS011;10284;58.364;15.550;2023-08-20T14:29:21;5.57;;;3.70;;
20251;SDS011;10284;58.364;15.550;2023-08-20T14:31:46;3.88;;;3.50;;
20251;SDS011;10284;58.364;15.550;2023-08-20T14:34:12;5.82;;;3.97;;
20251;SDS011;10284;58.364;15.550;2023-08-20T14:36:37;4.90;;;3.55;;
20251;SDS011;10284;58.364;15.550;2023-08-20T14:39:04;4.80;;;4.30;;
20251;SDS011;10284;58.364;15.550;2023-08-20T14:41:30;6.05;;;3.72;;
20251;SDS011;10284;58.364;15.550;2023-08-20T14:43:56;4.97;;;4.10;;
20251;SDS011;10284;58.364;15.550;2023-08-20T14:46:21;5.65;;;4.22;;
20251;SDS011;10284;58.364;15.550;2023-08-20T14:48:47;4.55;;;4.03;;
20251;SDS011;10284;58.364;15.550;2023-08-20T14:51:13;5.05;;;3.80;;
20251;SDS011;10284;58.364;15.550;2023-08-20T14:53:38;8.00;;;4.05;;